Dubai, UAE

11:16 PM GST on August 29, 2015 (GMT +0400)
Dubai International | | Change Station
CLOSE
Current Station
Airport
Location: Dubai,
Elevation: 26 ft
Nearby Weather Stations

Elev 26 ft 25.25 °N, 55.37 °E | Updated 16 minutes ago

Clear
Clear
102 °F
Feels Like 108 °F
N
7
Wind Variable Wind from East

Today
High -- | Low -- °F
--% Chance of Precip.
Yesterday
High -- | Low -- °F
Precip. -- in
5:57 AM 6:41 PM
Full, 100% visible
Pressure 29.59 in
Visibility -9999.0 miles
Clouds
Heat Index 108 °F
Dew Point 68 °F
Humidity 33%
Rainfall 0.00 in
Snow Depth Not available.
UV Not available.
Pollen Not available.
Air Quality Not available.
Flu Activity Not available.
METAR OMDB 291900Z 08006KT 040V110 CAVOK 39/20 Q1002 NOSIG
Pressure 29.59 in
Visibility -9999.0 miles
Clouds
Heat Index 108 °F
Dew Point 68 °F
Humidity 33%
Rainfall 0.00 in
Snow Depth Not available.
UV Not available.
Pollen Not available.
Air Quality Not available.
Flu Activity Not available.
METAR OMDB 291900Z 08006KT 040V110 CAVOK 39/20 Q1002 NOSIG

10-Day Weather Forecast

×

Almanac

Astronomy

Aug. 29, 2015 Rise Set
Actual Time
Civil Twilight
Nautical Twilight
Astronomical Twilight
Moon
Length of Visible Light
Length of Day
Tomorrow will be .
, % of the Moon is Illuminated

Today's Extremes

Country Highs Country Lows

Community

WunderPhotos

Upload Photos

1,850,778 photos uploaded!

WunderBlogs® & News

Nearby

Air Quality

  Air Quality AQ Index Pollutant
Not available.

Snow Depth

Station Depth Elevation

Earthquake Activity

City Distance Mag. Time & Date
Minimum magnitude displayed is 2.5.

Coastal Water Temperatures

Place Temperature

Stations

Nearby Weather Stations

Station Location Temp. Windchill Dew Point Humidity Wind Precip. Elev Updated Type